Time;durP1;ratioP1;P1;durP2;ratioP2;P2;SDS_P1;SDS_P2;PMS_P1;PMS_P2;Temp;Humidity;BMP_temperature;BMP_pressure;BME280_temperature;BME280_humidity;BME280_pressure;Samples;Min_cycle;Max_cycle;Signal;HPM_P1;HPM_P2
2023/12/18 00:01:29;;;;;;;4.65;0.90;;;;;;;1.84;99.13;98772.41;5074940;28;20655;-53
2023/12/18 00:03:55;;;;;;;2.38;0.80;;;;;;;1.79;98.68;98764.81;5072353;28;20039;-52
2023/12/18 00:06:21;;;;;;;1.63;0.45;;;;;;;1.86;99.27;98771.53;5070480;28;20044;-53
2023/12/18 00:08:46;;;;;;;4.15;0.90;;;;;;;1.86;100.00;98768.97;5068087;28;20566;-55
2023/12/18 00:11:14;;;;;;;6.93;0.93;;;;;;;1.93;100.00;98768.03;5072760;28;20044;-52
2023/12/18 00:13:40;;;;;;;2.30;0.57;;;;;;;1.67;100.00;98731.69;5071780;28;20032;-53
2023/12/18 00:16:06;;;;;;;3.58;0.90;;;;;;;1.79;100.00;98757.13;5073315;28;20047;-52
2023/12/18 00:18:32;;;;;;;5.03;0.90;;;;;;;1.82;100.00;98754.53;5073665;28;20122;-52
2023/12/18 00:20:58;;;;;;;3.10;1.00;;;;;;;1.85;100.00;98761.31;5081416;28;20068;-54
2023/12/18 00:23:24;;;;;;;4.50;0.93;;;;;;;1.89;100.00;98761.25;5067816;28;20114;-51
2023/12/18 00:25:50;;;;;;;4.53;1.02;;;;;;;1.81;100.00;98754.53;5073835;28;20094;-54
2023/12/18 00:28:16;;;;;;;4.03;0.55;;;;;;;1.72;98.51;98745.28;5072446;28;20427;-54
2023/12/18 00:30:42;;;;;;;3.40;1.08;;;;;;;1.71;98.43;98748.69;5073265;28;20767;-50
2023/12/18 00:33:08;;;;;;;2.45;0.52;;;;;;;1.71;98.14;98753.81;5073653;28;20504;-53
2023/12/18 00:35:34;;;;;;;2.83;0.68;;;;;;;1.71;98.36;98753.81;5068011;28;20041;-51
2023/12/18 00:38:00;;;;;;;4.05;1.00;;;;;;;1.74;99.50;98748.66;5062327;28;20043;-51
2023/12/18 00:40:25;;;;;;;2.90;0.60;;;;;;;1.79;100.00;98749.44;5073695;28;20641;-50
2023/12/18 00:42:51;;;;;;;2.33;0.93;;;;;;;1.66;99.30;98740.22;5072528;28;20054;-53
2023/12/18 00:45:17;;;;;;;3.10;0.60;;;;;;;1.65;99.06;98741.09;5071591;28;20079;-54
2023/12/18 00:47:43;;;;;;;3.30;1.02;;;;;;;1.60;97.18;98738.59;5056708;28;20515;-52
2023/12/18 00:50:10;;;;;;;1.50;0.70;;;;;;;1.57;97.34;98727.56;5082764;28;20074;-49
2023/12/18 00:52:36;;;;;;;4.57;0.93;;;;;;;1.68;99.30;98731.66;5077558;28;20043;-54
2023/12/18 00:55:03;;;;;;;4.40;0.80;;;;;;;1.65;99.96;98728.28;5066632;28;20516;-50
2023/12/18 00:57:30;;;;;;;4.18;0.73;;;;;;;1.70;100.00;98726.50;5070231;28;20054;-50
2023/12/18 00:59:56;;;;;;;4.47;0.80;;;;;;;1.42;100.00;98697.88;5073125;28;20037;-52
2023/12/18 01:02:22;;;;;;;2.85;0.60;;;;;;;1.42;99.34;98694.44;5071620;28;20036;-52
2023/12/18 01:04:48;;;;;;;3.05;0.70;;;;;;;1.39;99.75;98691.94;5072384;28;20036;-51
2023/12/18 01:07:14;;;;;;;3.92;1.13;;;;;;;1.30;100.00;98663.91;5072864;28;20563;-51
2023/12/18 01:09:39;;;;;;;3.90;0.70;;;;;;;1.80;100.00;98730.63;5070032;28;20046;-53
2023/12/18 01:12:06;;;;;;;2.83;0.80;;;;;;;1.73;100.00;98734.13;5072444;28;20036;-48
2023/12/18 01:14:32;;;;;;;6.03;0.90;;;;;;;1.52;100.00;98702.00;5087728;28;20033;-59
2023/12/18 01:16:58;;;;;;;4.18;1.30;;;;;;;1.79;100.00;98739.19;5073099;28;20078;-53
2023/12/18 01:19:23;;;;;;;2.33;0.52;;;;;;;1.77;100.00;98734.97;5072923;28;20036;-50
2023/12/18 01:21:49;;;;;;;2.63;0.60;;;;;;;1.80;100.00;98742.59;5085334;28;20040;-50
2023/12/18 01:24:16;;;;;;;3.85;0.90;;;;;;;1.80;100.00;98734.91;5071090;28;20512;-52
2023/12/18 01:26:41;;;;;;;5.28;0.68;;;;;;;1.74;100.00;98733.28;5055175;28;20098;-55
2023/12/18 01:29:07;;;;;;;4.32;1.10;;;;;;;1.51;99.57;98704.59;5048029;28;20036;-54
2023/12/18 01:31:33;;;;;;;1.70;0.70;;;;;;;1.70;99.09;98734.19;5071793;28;20086;-53
2023/12/18 01:33:59;;;;;;;5.45;0.98;;;;;;;1.63;100.00;98707.81;5075993;28;20698;-52
2023/12/18 01:36:25;;;;;;;2.55;0.60;;;;;;;1.90;100.00;98736.47;5078482;28;20040;-51
2023/12/18 01:38:51;;;;;;;4.32;0.70;;;;;;;1.82;100.00;98717.81;5076817;28;20075;-52
2023/12/18 01:41:17;;;;;;;4.68;0.80;;;;;;;1.63;100.00;98692.44;5082827;28;20539;-53
2023/12/18 01:43:43;;;;;;;3.50;0.70;;;;;;;1.84;100.00;98724.59;5070210;28;20036;-50
2023/12/18 01:46:10;;;;;;;2.60;0.82;;;;;;;1.77;100.00;98719.59;5066437;28;20048;-52
2023/12/18 01:48:36;;;;;;;3.20;0.70;;;;;;;1.69;100.00;98710.28;5078847;28;20040;-49
2023/12/18 01:51:02;;;;;;;2.88;0.73;;;;;;;1.56;100.00;98706.22;5066397;28;20048;-54
2023/12/18 01:53:34;;;;;;;4.00;0.80;;;;;;;1.41;100.00;98711.56;5073018;28;20062;-55
2023/12/18 01:56:00;;;;;;;2.55;0.95;;;;;;;1.27;100.00;98716.84;5067915;28;20051;-54
2023/12/18 01:58:27;;;;;;;4.00;1.08;;;;;;;1.16;100.00;98703.31;5073589;28;20078;-54
2023/12/18 02:00:52;;;;;;;1.35;0.68;;;;;;;0.61;100.00;98612.78;5061134;28;20130;-52
2023/12/18 02:03:19;;;;;;;2.47;0.70;;;;;;;0.82;100.00;98658.56;5075350;28;20151;-53
2023/12/18 02:05:46;;;;;;;2.38;0.60;;;;;;;0.97;100.00;98689.06;5081201;28;20538;-53
2023/12/18 02:08:12;;;;;;;1.92;0.70;;;;;;;0.86;100.00;98685.78;5054493;28;20032;-55
2023/12/18 02:10:38;;;;;;;5.90;0.70;;;;;;;0.84;100.00;98685.78;5071881;28;20113;-55
2023/12/18 02:13:04;;;;;;;4.57;1.00;;;;;;;0.83;100.00;98686.69;5072098;28;20047;-51
2023/12/18 02:15:30;;;;;;;3.15;0.88;;;;;;;0.81;100.00;98675.63;5054775;28;20052;-52
2023/12/18 02:17:56;;;;;;;1.48;0.70;;;;;;;0.78;100.00;98677.38;5072192;28;20049;-53
2023/12/18 02:20:42;;;;;;;5.38;0.90;;;;;;;0.74;100.00;98679.09;5056820;28;20055;-57
2023/12/18 02:23:09;;;;;;;4.60;0.85;;;;;;;0.46;100.00;98639.38;5071055;28;20072;-55
2023/12/18 02:25:35;;;;;;;4.05;0.88;;;;;;;0.64;100.00;98661.31;5070438;28;20113;-53
2023/12/18 02:28:03;;;;;;;2.53;0.70;;;;;;;0.65;100.00;98668.97;5077111;28;20044;-51
2023/12/18 02:30:32;;;;;;;5.55;0.80;;;;;;;0.51;100.00;98637.59;5078403;28;20036;-51
2023/12/18 02:32:58;;;;;;;3.05;0.63;;;;;;;0.45;100.00;98636.81;5077316;28;20050;-54
2023/12/18 02:35:24;;;;;;;2.67;0.73;;;;;;;0.62;100.00;98668.16;5072093;28;20036;-54
2023/12/18 02:37:50;;;;;;;3.03;0.60;;;;;;;0.15;100.00;98603.06;5075594;28;20581;-54
2023/12/18 02:40:16;;;;;;;3.45;0.60;;;;;;;0.53;100.00;98673.34;5074376;28;20040;-54
2023/12/18 02:42:42;;;;;;;2.88;0.68;;;;;;;0.51;100.00;98670.84;5074863;28;20051;-54
2023/12/18 02:45:09;;;;;;;4.75;0.70;;;;;;;0.51;100.00;98668.28;5075395;28;20040;-54
2023/12/18 02:47:35;;;;;;;4.43;0.80;;;;;;;0.49;100.00;98674.25;5057234;28;20090;-56
2023/12/18 02:50:01;;;;;;;6.95;1.10;;;;;;;0.46;100.00;98670.03;5084590;28;20047;-54
2023/12/18 02:52:27;;;;;;;3.13;0.80;;;;;;;0.38;100.00;98672.66;5073154;28;20049;-49
2023/12/18 02:54:53;;;;;;;5.15;1.17;;;;;;;0.35;100.00;98665.03;5073567;28;20075;-52
2023/12/18 02:57:19;;;;;;;5.07;1.00;;;;;;;0.39;100.00;98674.38;5069778;28;20059;-55
2023/12/18 02:59:44;;;;;;;1.65;0.68;;;;;;;0.35;100.00;98670.16;5081101;28;20043;-57
2023/12/18 03:02:10;;;;;;;4.35;1.13;;;;;;;0.34;100.00;98662.50;5075116;28;20039;-56
2023/12/18 03:04:40;;;;;;;5.55;1.25;;;;;;;0.31;100.00;98677.88;5075198;28;20090;-53
2023/12/18 03:07:08;;;;;;;2.90;0.82;;;;;;;0.30;100.00;98683.84;5074528;28;20044;-56
2023/12/18 03:09:33;;;;;;;5.72;1.05;;;;;;;0.06;100.00;98651.66;5071932;28;20048;-54
2023/12/18 03:11:59;;;;;;;4.38;1.25;;;;;;;0.22;100.00;98681.34;5064699;28;20534;-55
2023/12/18 03:14:25;;;;;;;5.97;1.40;;;;;;;0.12;100.00;98664.41;5085099;28;20044;-52
2023/12/18 03:16:51;;;;;;;4.50;1.05;;;;;;;0.23;100.00;98687.28;5082601;28;20104;-55
2023/12/18 03:19:18;;;;;;;5.53;1.23;;;;;;;0.21;100.00;98686.47;5073384;28;20051;-51
2023/12/18 03:21:45;;;;;;;9.75;1.60;;;;;;;0.16;100.00;98683.13;5072519;28;20040;-55
2023/12/18 03:24:11;;;;;;;5.90;1.17;;;;;;;0.14;100.00;98693.34;5055450;28;20060;-53
2023/12/18 03:26:37;;;;;;;9.07;1.58;;;;;;;0.06;100.00;98687.44;5055803;28;20091;-52
2023/12/18 03:29:03;;;;;;;3.08;1.35;;;;;;;-0.12;100.00;98657.81;5074757;28;20048;-51
2023/12/18 03:31:29;;;;;;;6.18;1.30;;;;;;;0.05;100.00;98680.66;5074715;28;20537;-56
2023/12/18 03:33:55;;;;;;;8.35;1.20;;;;;;;0.07;100.00;98680.63;5066016;28;20036;-55
2023/12/18 03:36:21;;;;;;;4.45;1.17;;;;;;;-0.01;100.00;98680.72;5074742;28;20507;-53
2023/12/18 03:38:47;;;;;;;4.68;1.10;;;;;;;-0.01;100.00;98694.34;5090859;28;20074;-53
2023/12/18 03:41:12;;;;;;;2.67;0.98;;;;;;;-0.27;100.00;98646.88;5080334;28;20141;-52
2023/12/18 03:43:38;;;;;;;8.93;1.75;;;;;;;-0.02;100.00;98689.22;5072744;28;20039;-51
2023/12/18 03:46:05;;;;;;;4.10;1.20;;;;;;;-0.32;100.00;98636.69;5074530;28;20134;-51
2023/12/18 03:48:30;;;;;;;8.68;1.10;;;;;;;-0.06;100.00;98678.19;5077544;28;20029;-53
2023/12/18 03:50:56;;;;;;;6.28;1.20;;;;;;;-0.08;100.00;98686.72;5076193;28;20044;-54
2023/12/18 03:53:22;;;;;;;3.40;1.02;;;;;;;-0.10;100.00;98681.59;5076151;28;20059;-56
2023/12/18 03:55:48;;;;;;;6.93;1.50;;;;;;;-0.12;100.00;98696.13;5089469;28;20070;-55
2023/12/18 03:58:14;;;;;;;4.15;1.10;;;;;;;-0.14;100.00;98694.41;5063826;28;20622;-49
2023/12/18 04:00:41;;;;;;;3.42;1.10;;;;;;;-0.14;100.00;98689.31;5067418;28;20039;-55
2023/12/18 04:03:07;;;;;;;8.57;1.40;;;;;;;-0.18;100.00;98680.00;5081774;28;20097;-55
2023/12/18 04:05:33;;;;;;;3.05;0.95;;;;;;;-0.18;100.00;98680.00;5069649;28;20040;-54
2023/12/18 04:07:59;;;;;;;6.65;1.00;;;;;;;-0.19;100.00;98684.25;5073255;28;20067;-54
2023/12/18 04:10:25;;;;;;;7.78;1.55;;;;;;;-0.16;100.00;98688.50;5052751;28;20033;-55
2023/12/18 04:12:52;;;;;;;6.28;1.50;;;;;;;-0.17;100.00;98687.66;5079656;28;20044;-53
2023/12/18 04:15:18;;;;;;;2.85;1.13;;;;;;;-0.14;100.00;98694.41;5078014;28;20040;-52
2023/12/18 04:17:44;;;;;;;1.92;1.30;;;;;;;-0.17;100.00;98690.19;5073143;28;20047;-55
2023/12/18 04:20:10;;;;;;;3.08;0.90;;;;;;;-0.23;100.00;98676.63;5064298;28;20068;-57
2023/12/18 04:22:36;;;;;;;3.90;0.90;;;;;;;-0.08;100.00;98686.72;5078356;28;20091;-54
2023/12/18 04:25:03;;;;;;;11.68;1.67;;;;;;;0.03;100.00;98699.41;5071153;28;20496;-56
2023/12/18 04:27:31;;;;;;;5.13;1.38;;;;;;;0.08;100.00;98711.28;5080003;28;20419;-55
2023/12/18 04:29:57;;;;;;;2.20;0.88;;;;;;;-0.18;100.00;98660.41;5072320;28;20055;-56
2023/12/18 04:32:23;;;;;;;2.97;1.25;;;;;;;0.05;100.00;98696.00;5055503;28;20044;-53
2023/12/18 04:34:49;;;;;;;4.18;1.33;;;;;;;-0.15;100.00;98664.63;5071015;28;20041;-53
2023/12/18 04:37:14;;;;;;;3.53;1.55;;;;;;;0.16;100.00;98701.00;5089147;28;20539;-56
2023/12/18 04:39:40;;;;;;;4.60;1.83;;;;;;;0.16;100.00;98699.28;5072458;28;20041;-54
2023/12/18 04:42:06;;;;;;;3.30;1.42;;;;;;;0.21;100.00;98707.75;5076840;28;20050;-54
2023/12/18 04:44:32;;;;;;;5.35;1.30;;;;;;;0.27;100.00;98711.97;5078554;28;20028;-56
2023/12/18 04:46:58;;;;;;;4.28;1.35;;;;;;;0.20;100.00;98690.75;5072586;28;20093;-54
2023/12/18 04:49:24;;;;;;;8.25;1.73;;;;;;;0.36;100.00;98722.13;5072530;28;20036;-55
2023/12/18 04:51:50;;;;;;;2.90;1.40;;;;;;;0.35;100.00;98725.53;5070769;28;20130;-56
2023/12/18 04:54:16;;;;;;;6.35;1.63;;;;;;;0.37;100.00;98711.00;5071796;28;20105;-54
2023/12/18 04:56:42;;;;;;;2.85;1.15;;;;;;;0.36;100.00;98706.78;5078563;28;20516;-51
2023/12/18 04:59:10;;;;;;;7.70;1.70;;;;;;;0.41;100.00;98718.66;5071946;28;20080;-55
2023/12/18 05:01:36;;;;;;;5.65;1.35;;;;;;;0.24;100.00;98677.06;5079582;28;20036;-53
2023/12/18 05:04:02;;;;;;;5.82;1.70;;;;;;;0.38;100.00;98677.78;5072689;28;20067;-54
2023/12/18 05:06:28;;;;;;;5.18;1.63;;;;;;;0.51;100.00;98708.34;5071737;28;20040;-55
2023/12/18 05:08:55;;;;;;;6.50;1.65;;;;;;;0.52;100.00;98705.78;5069169;28;20105;-55
2023/12/18 05:11:25;;;;;;;4.55;1.58;;;;;;;0.54;100.00;98701.47;5072986;28;20039;-57
2023/12/18 05:13:51;;;;;;;4.32;1.48;;;;;;;0.04;100.00;98634.69;5086832;28;20094;-57
2023/12/18 05:16:21;;;;;;;3.95;1.60;;;;;;;0.55;100.00;98715.97;5079072;28;20047;-55
2023/12/18 05:18:47;;;;;;;;;;;;;;;0.63;100.00;98726.94;5074526;28;20037;-53
2023/12/18 05:21:13;;;;;;;3.22;1.45;;;;;;;0.35;100.00;98679.53;5072227;28;19923;-54
2023/12/18 05:23:39;;;;;;;3.50;1.55;;;;;;;0.55;100.00;98715.13;5072243;28;20048;-56
2023/12/18 05:26:05;;;;;;;4.20;1.65;;;;;;;0.57;100.00;98703.19;5088200;28;20698;-55
2023/12/18 05:28:32;;;;;;;4.47;1.67;;;;;;;0.61;100.00;98710.78;5076281;28;20039;-53
2023/12/18 05:30:57;;;;;;;7.80;1.92;;;;;;;0.57;100.00;98711.69;5079810;28;20404;-54
2023/12/18 05:33:27;;;;;;;5.13;1.95;;;;;;;0.29;100.00;98672.75;5069333;28;20048;-54
2023/12/18 05:35:53;;;;;;;;;;;;;;;0.62;100.00;98709.09;5084608;28;20097;-54
2023/12/18 05:38:18;;;;;;;6.18;1.80;;;;;;;0.63;100.00;98703.94;5084125;28;19919;-57
2023/12/18 05:40:44;;;;;;;9.52;1.88;;;;;;;0.30;100.00;98674.47;5079786;28;20044;-58
2023/12/18 05:43:10;;;;;;;7.32;1.58;;;;;;;0.55;100.00;98708.28;5077815;28;20642;-54
2023/12/18 05:45:36;;;;;;;6.30;1.80;;;;;;;0.25;100.00;98668.56;5068944;28;20444;-53
2023/12/18 05:48:02;;;;;;;6.82;2.10;;;;;;;0.61;100.00;98709.94;5077348;28;20574;-53
2023/12/18 05:50:28;;;;;;;6.95;1.48;;;;;;;0.63;100.00;98708.22;5078583;28;20063;-54
2023/12/18 05:52:54;;;;;;;6.45;1.90;;;;;;;0.62;100.00;98704.81;5074998;28;20125;-56
2023/12/18 05:55:22;;;;;;;4.20;1.50;;;;;;;0.64;100.00;98712.47;5083261;28;20457;-54
2023/12/18 05:57:48;;;;;;;6.35;1.75;;;;;;;0.64;100.00;98695.41;5080167;28;20059;-55
2023/12/18 06:00:14;;;;;;;4.25;1.60;;;;;;;0.72;100.00;98703.00;5084802;28;20064;-54
2023/12/18 06:02:40;;;;;;;7.88;1.88;;;;;;;0.69;100.00;98713.25;5080587;28;20446;-55
2023/12/18 06:05:07;;;;;;;3.05;1.80;;;;;;;0.64;99.92;98699.66;5067411;28;20040;-55
2023/12/18 06:07:33;;;;;;;7.88;1.67;;;;;;;0.61;99.58;98689.47;5071566;28;20478;-54
2023/12/18 06:09:59;;;;;;;4.82;2.28;;;;;;;0.42;99.64;98664.09;5082493;28;20044;-56
2023/12/18 06:12:25;;;;;;;6.30;2.15;;;;;;;0.63;98.46;98703.94;5076103;28;20033;-56
2023/12/18 06:14:51;;;;;;;7.03;2.35;;;;;;;0.62;98.88;98693.75;5065795;28;20040;-55
2023/12/18 06:17:17;;;;;;;7.35;1.90;;;;;;;0.71;99.12;98712.38;5089659;28;20044;-53
2023/12/18 06:19:44;;;;;;;6.20;1.48;;;;;;;0.68;98.19;98716.69;5081471;28;20060;-58
2023/12/18 06:22:11;;;;;;;5.22;1.80;;;;;;;0.67;97.06;98712.44;5088397;28;20044;-57
2023/12/18 06:24:41;;;;;;;7.20;2.08;;;;;;;0.43;97.17;98670.06;5079355;28;20043;-56
2023/12/18 06:27:07;;;;;;;4.63;1.67;;;;;;;0.37;97.08;98653.06;5066689;28;20048;-55
2023/12/18 06:29:33;;;;;;;5.38;2.03;;;;;;;0.75;97.10;98720.88;5083127;28;20722;-55
2023/12/18 06:31:59;;;;;;;4.72;1.42;;;;;;;0.67;95.96;98715.00;5087535;28;20057;-55
2023/12/18 06:34:25;;;;;;;6.75;1.90;;;;;;;0.48;96.50;98682.78;5085422;28;20521;-54
2023/12/18 06:36:51;;;;;;;3.83;1.65;;;;;;;0.50;96.11;98671.69;5082621;28;20048;-53
2023/12/18 06:39:16;;;;;;;5.20;1.95;;;;;;;0.52;95.80;98671.69;5082825;28;20044;-50
2023/12/18 06:41:43;;;;;;;3.33;1.67;;;;;;;0.77;95.75;98709.78;5083984;28;20040;-55
2023/12/18 06:44:08;;;;;;;3.90;1.70;;;;;;;0.77;95.81;98706.38;5085618;28;20776;-57
2023/12/18 06:46:34;;;;;;;9.20;1.58;;;;;;;0.80;95.15;98709.72;5083214;28;20052;-54
2023/12/18 06:49:03;;;;;;;8.10;2.40;;;;;;;0.98;95.74;98716.34;5083035;28;20166;-51
2023/12/18 06:51:29;;;;;;;4.35;1.55;;;;;;;1.02;95.28;98724.84;5082987;28;20040;-53
2023/12/18 06:53:55;;;;;;;5.80;1.75;;;;;;;0.82;94.93;98677.31;5083837;28;20074;-50
2023/12/18 06:56:21;;;;;;;3.00;1.70;;;;;;;1.08;95.09;98727.31;5078224;28;20455;-54
2023/12/18 06:58:47;;;;;;;4.05;1.77;;;;;;;1.00;94.55;98718.88;5083896;28;20516;-55
2023/12/18 07:01:16;;;;;;;2.67;1.60;;;;;;;1.05;94.26;98717.97;5065476;28;20059;-55
2023/12/18 07:03:43;;;;;;;8.00;1.80;;;;;;;1.01;93.17;98713.75;5077073;28;20036;-53
2023/12/18 07:06:10;;;;;;;4.72;2.20;;;;;;;1.13;93.17;98720.44;5084440;28;20074;-51
2023/12/18 07:08:36;;;;;;;7.18;2.00;;;;;;;1.00;93.21;98690.72;5081910;28;20162;-54
2023/12/18 07:11:02;;;;;;;5.70;1.83;;;;;;;1.22;92.93;98722.88;5074961;28;20546;-54
2023/12/18 07:13:27;;;;;;;9.27;2.20;;;;;;;1.26;92.59;98701.50;5079338;28;20048;-53
2023/12/18 07:15:53;;;;;;;3.83;1.58;;;;;;;1.37;92.17;98712.44;5076949;28;20127;-53
2023/12/18 07:18:19;;;;;;;7.80;2.20;;;;;;;1.48;92.42;98712.31;5097041;28;20048;-56
2023/12/18 07:20:45;;;;;;;6.22;2.10;;;;;;;1.45;90.41;98718.31;5081702;28;20589;-53
2023/12/18 07:23:11;;;;;;;2.55;1.70;;;;;;;1.53;90.34;98716.50;5080569;28;20393;-54
2023/12/18 07:25:37;;;;;;;6.40;2.10;;;;;;;1.54;89.47;98710.50;5080293;28;20272;-53
2023/12/18 07:28:09;;;;;;;4.85;1.83;;;;;;;1.61;89.46;98711.28;5074575;28;20091;-52
2023/12/18 07:30:36;;;;;;;7.57;2.05;;;;;;;1.64;89.71;98713.78;5074657;28;20462;-57
2023/12/18 07:33:03;;;;;;;7.22;2.08;;;;;;;1.68;89.42;98711.16;5075413;28;20062;-55
2023/12/18 07:35:29;;;;;;;5.97;1.70;;;;;;;1.69;88.77;98710.28;5072885;28;20036;-57
2023/12/18 07:37:54;;;;;;;3.63;1.90;;;;;;;1.45;88.67;98679.91;5072635;28;20173;-51
2023/12/18 07:40:21;;;;;;;5.07;1.67;;;;;;;1.71;88.65;98710.28;5072285;28;20078;-54
2023/12/18 07:42:47;;;;;;;10.38;2.00;;;;;;;1.85;89.10;98721.16;5074808;28;20088;-52
2023/12/18 07:45:13;;;;;;;8.82;2.00;;;;;;;2.06;88.72;98718.25;5075877;28;20036;-54
2023/12/18 07:47:40;;;;;;;2.53;1.40;;;;;;;2.30;88.34;98714.47;5085678;28;20059;-52
2023/12/18 07:50:07;;;;;;;7.80;2.20;;;;;;;2.35;87.77;98714.38;5086322;28;20040;-53
2023/12/18 07:52:33;;;;;;;8.38;1.83;;;;;;;2.08;87.29;98662.72;5078550;28;20036;-53
2023/12/18 07:54:59;;;;;;;4.60;2.50;;;;;;;2.37;87.36;98715.19;5082236;28;20081;-54
2023/12/18 07:57:25;;;;;;;8.63;1.70;;;;;;;2.39;86.80;98708.34;5084171;28;20048;-55
2023/12/18 07:59:51;;;;;;;5.35;1.67;;;;;;;2.38;87.02;98701.50;5083492;28;20086;-57
2023/12/18 08:02:17;;;;;;;5.72;2.03;;;;;;;2.34;86.83;98703.28;5065015;28;20171;-54
2023/12/18 08:04:43;;;;;;;4.88;2.05;;;;;;;2.27;86.50;98698.28;5083734;28;20556;-56
2023/12/18 08:07:09;;;;;;;6.45;1.98;;;;;;;2.37;86.76;98697.25;5066664;28;20463;-59
2023/12/18 08:09:35;;;;;;;5.28;2.10;;;;;;;2.44;86.81;98686.84;5084928;28;20040;-56
2023/12/18 08:12:01;;;;;;;5.47;1.70;;;;;;;2.50;86.75;98693.59;5062751;28;20044;-56
2023/12/18 08:14:27;;;;;;;7.88;2.05;;;;;;;2.44;86.20;98686.84;5074402;28;20163;-54
2023/12/18 08:16:53;;;;;;;8.73;2.10;;;;;;;2.36;86.89;98642.53;5082469;28;20044;-55
2023/12/18 08:19:19;;;;;;;5.97;1.80;;;;;;;2.70;86.70;98690.66;5079968;28;20507;-57
2023/12/18 08:21:44;;;;;;;13.90;2.40;;;;;;;2.40;86.71;98654.47;5082652;28;20097;-56
2023/12/18 08:24:10;;;;;;;3.10;1.85;;;;;;;2.72;86.98;98692.31;5075679;28;20059;-55
2023/12/18 08:26:36;;;;;;;3.83;1.48;;;;;;;2.83;86.98;98692.97;5078464;28;20701;-55
2023/12/18 08:29:04;;;;;;;6.35;1.73;;;;;;;2.74;86.27;98700.00;5060354;28;20077;-56
2023/12/18 08:31:30;;;;;;;6.93;1.70;;;;;;;2.75;86.08;98697.41;5077985;28;20037;-55
2023/12/18 08:33:56;;;;;;;7.07;1.70;;;;;;;2.78;86.17;98697.34;5080879;28;20538;-55
2023/12/18 08:36:22;;;;;;;6.10;1.65;;;;;;;2.78;85.92;98701.63;5073847;28;20044;-54
2023/12/18 08:38:48;;;;;;;8.60;2.70;;;;;;;2.79;85.37;98703.31;5074280;28;20043;-53
2023/12/18 08:41:14;;;;;;;3.85;1.60;;;;;;;2.59;85.48;98675.47;5073934;28;20032;-57
2023/12/18 08:43:42;;;;;;;6.00;1.60;;;;;;;2.64;84.92;98698.47;5037339;28;20134;-57
2023/12/18 08:46:08;;;;;;;3.03;1.42;;;;;;;2.65;85.54;98705.31;5059488;28;20044;-55
2023/12/18 08:48:34;;;;;;;8.32;1.95;;;;;;;2.45;85.76;98670.59;5079313;28;20089;-50
2023/12/18 08:51:00;;;;;;;5.30;1.55;;;;;;;2.44;86.02;98668.91;5096042;28;20036;-51
2023/12/18 08:53:26;;;;;;;5.10;2.10;;;;;;;2.75;86.21;98704.25;5083856;28;20527;-53
2023/12/18 08:55:52;;;;;;;6.47;1.90;;;;;;;2.78;86.19;98683.66;5078524;28;20092;-54
2023/12/18 08:58:20;;;;;;;3.92;2.13;;;;;;;2.73;85.89;98680.31;5058237;28;20158;-54
2023/12/18 09:00:46;;;;;;;5.22;2.05;;;;;;;2.77;86.19;98680.28;5077190;28;20140;-54
2023/12/18 09:03:12;;;;;;;7.38;2.00;;;;;;;2.74;86.18;98677.75;5075993;28;20163;-53
2023/12/18 09:05:38;;;;;;;5.15;2.00;;;;;;;2.72;86.49;98692.31;5077367;28;20036;-53
2023/12/18 09:08:05;;;;;;;6.95;2.40;;;;;;;2.72;86.36;98689.75;5076341;28;20059;-55
2023/12/18 09:10:33;;;;;;;4.85;2.00;;;;;;;2.71;87.02;98661.56;5083547;28;20035;-56
2023/12/18 09:12:58;;;;;;;6.47;1.92;;;;;;;2.65;86.18;98649.69;5081312;28;20777;-54
2023/12/18 09:15:24;;;;;;;4.93;1.83;;;;;;;2.80;86.78;98690.47;5083213;28;20032;-53
2023/12/18 09:17:50;;;;;;;9.40;2.33;;;;;;;2.90;86.90;98684.28;5085779;28;20036;-53
2023/12/18 09:20:17;;;;;;;6.93;2.13;;;;;;;2.94;86.76;98691.03;5076553;28;20043;-57
2023/12/18 09:22:46;;;;;;;7.95;2.50;;;;;;;2.96;86.95;98680.75;5077425;28;20077;-56
2023/12/18 09:25:12;;;;;;;4.97;1.83;;;;;;;3.01;86.81;98688.34;5082511;28;20043;-57
2023/12/18 09:27:37;;;;;;;8.43;2.17;;;;;;;2.90;87.03;98686.00;5067499;28;20044;-56
2023/12/18 09:30:05;;;;;;;8.40;2.65;;;;;;;2.95;87.60;98689.31;5084862;28;20097;-53
2023/12/18 09:32:31;;;;;;;7.18;2.38;;;;;;;2.94;87.51;98688.47;5077970;28;20036;-54
2023/12/18 09:34:57;;;;;;;7.50;2.60;;;;;;;3.02;88.10;98674.63;5079944;28;20046;-53
2023/12/18 09:37:25;;;;;;;6.47;1.90;;;;;;;3.08;87.28;98675.38;5080589;28;20116;-52
2023/12/18 09:39:51;;;;;;;3.92;2.03;;;;;;;3.07;87.63;98671.09;5081613;28;20040;-54
2023/12/18 09:42:17;;;;;;;3.65;1.75;;;;;;;2.99;87.79;98666.13;5080142;28;20036;-52
2023/12/18 09:44:44;;;;;;;3.85;1.90;;;;;;;3.01;88.10;98681.50;5082783;28;20043;-57
2023/12/18 09:47:10;;;;;;;7.78;3.20;;;;;;;2.92;88.36;98679.13;5086828;28;20543;-53
2023/12/18 09:49:36;;;;;;;5.78;2.45;;;;;;;2.81;89.37;98673.34;5087369;28;20044;-57
2023/12/18 09:52:07;;;;;;;5.07;2.42;;;;;;;2.73;90.48;98659.81;5087435;28;20035;-56
2023/12/18 09:54:37;;;;;;;10.57;4.25;;;;;;;2.77;91.26;98658.88;5070971;28;20062;-55
2023/12/18 09:57:05;;;;;;;8.40;2.55;;;;;;;2.78;91.44;98655.41;5072292;28;20507;-53
2023/12/18 09:59:31;;;;;;;4.22;2.03;;;;;;;2.76;91.65;98657.19;5087112;28;20060;-54
2023/12/18 10:01:58;;;;;;;5.10;2.95;;;;;;;2.68;92.28;98647.06;5085944;28;20079;-54
2023/12/18 10:04:25;;;;;;;11.68;2.95;;;;;;;2.72;92.73;98651.25;5070074;28;20032;-57
2023/12/18 10:06:51;;;;;;;6.13;2.95;;;;;;;2.82;92.74;98651.94;5085109;28;20047;-58
2023/12/18 10:09:17;;;;;;;8.00;3.03;;;;;;;2.56;93.08;98607.09;5073076;28;20037;-56
2023/12/18 10:11:46;;;;;;;6.65;2.90;;;;;;;2.79;92.88;98646.84;5066221;28;20476;-51
2023/12/18 10:14:15;;;;;;;5.25;2.63;;;;;;;2.85;93.30;98650.16;5077148;28;20036;-54
2023/12/18 10:16:42;;;;;;;3.63;2.17;;;;;;;2.82;93.99;98651.94;5074178;28;20050;-57
2023/12/18 10:19:08;;;;;;;7.57;2.88;;;;;;;2.79;94.21;98647.69;5083534;28;20064;-52
2023/12/18 10:21:34;;;;;;;5.65;2.50;;;;;;;2.83;94.67;98645.91;5082484;28;20116;-55
2023/12/18 10:24:01;;;;;;;5.20;2.22;;;;;;;2.81;94.80;98645.97;5083657;28;20047;-54
2023/12/18 10:26:28;;;;;;;6.13;2.45;;;;;;;2.85;95.33;98649.31;5084883;28;20550;-57
2023/12/18 10:28:54;;;;;;;7.20;2.25;;;;;;;2.86;95.20;98658.69;5084839;28;20036;-58
2023/12/18 10:31:20;;;;;;;6.35;3.30;;;;;;;2.84;94.88;98647.59;5086794;28;20058;-56
2023/12/18 10:33:46;;;;;;;6.93;3.03;;;;;;;2.90;94.63;98642.34;5087423;28;20077;-57
2023/12/18 10:36:15;;;;;;;5.05;2.88;;;;;;;2.93;94.69;98645.69;5089097;28;20040;-57
2023/12/18 10:38:41;;;;;;;7.65;2.50;;;;;;;2.96;94.70;98642.25;5082078;28;20066;-59
2023/12/18 10:41:09;;;;;;;4.32;1.73;;;;;;;2.90;94.60;98644.91;5084903;28;20049;-59
2023/12/18 10:43:35;;;;;;;6.28;2.63;;;;;;;2.84;94.94;98651.03;5088875;28;20047;-56
2023/12/18 10:46:03;;;;;;;7.55;2.22;;;;;;;2.86;95.07;98636.44;5079009;28;20048;-58
2023/12/18 10:48:29;;;;;;;7.68;3.30;;;;;;;2.60;95.13;98599.34;5070642;28;20797;-56
2023/12/18 10:50:56;;;;;;;6.70;3.40;;;;;;;2.95;95.47;98645.69;5087091;28;20054;-59
2023/12/18 10:53:23;;;;;;;28.23;7.57;;;;;;;2.79;95.42;98647.69;5085068;28;20125;-59
2023/12/18 10:55:49;;;;;;;19.80;6.47;;;;;;;2.87;95.58;98658.69;5070267;28;20044;-57
2023/12/18 10:58:19;;;;;;;18.80;6.97;;;;;;;2.91;95.76;98660.31;5079037;28;20063;-58
2023/12/18 11:00:46;;;;;;;6.70;2.83;;;;;;;2.56;95.56;98609.66;5078531;28;20027;-61
2023/12/18 11:03:15;;;;;;;14.02;4.78;;;;;;;2.84;95.39;98658.72;5071302;28;20039;-62
2023/12/18 11:05:42;;;;;;;5.53;2.80;;;;;;;2.91;95.62;98667.16;5082850;28;20043;-63
2023/12/18 11:08:10;;;;;;;4.57;2.28;;;;;;;2.86;95.57;98667.25;5079412;28;20098;-63
2023/12/18 11:10:36;;;;;;;5.82;2.58;;;;;;;2.55;95.67;98590.03;5057687;28;20106;-63
2023/12/18 11:13:20;;;;;;;7.53;2.85;;;;;;;3.08;95.76;98664.25;5077139;28;20042;-64
2023/12/18 11:15:58;;;;;;;3.90;2.58;;;;;;;3.13;95.55;98670.97;5092936;28;20040;-63
2023/12/18 11:18:30;;;;;;;4.40;2.60;;;;;;;3.19;95.50;98662.31;5082949;28;20036;-63
2023/12/18 11:20:57;;;;;;;8.02;2.60;;;;;;;3.20;95.11;98657.13;5083676;28;20467;-63
2023/12/18 11:23:26;;;;;;;4.82;2.17;;;;;;;3.16;95.05;98655.50;5075504;28;20083;-65
2023/12/18 11:25:52;;;;;;;;;;;;;;;3.11;94.33;98656.47;5074803;28;20043;-65
2023/12/18 11:28:20;;;;;;;7.28;2.70;;;;;;;3.01;94.41;98652.41;5083286;28;20310;-66
2023/12/18 11:30:46;;;;;;;6.65;2.22;;;;;;;3.02;94.38;98654.94;5079861;28;20063;-64
2023/12/18 11:33:14;;;;;;;7.93;3.45;;;;;;;2.98;94.99;98677.25;5083058;28;20036;-64